Time;durP1;ratioP1;P1;durP2;ratioP2;P2;SDS_P1;SDS_P2;PMS_P1;PMS_P2;Temp;Humidity;BMP_temperature;BMP_pressure;BME280_temperature;BME280_humidity;BME280_pressure;Samples;Min_cycle;Max_cycle;Signal;HPM_P1;HPM_P2
2022/01/03 00:00:14;;;;;;;4.50;2.78;;;-3.60;99.90;;;;;;5051619;28;20437;-89
2022/01/03 00:02:43;;;;;;;4.05;2.65;;;-3.50;99.90;;;;;;5051611;28;20399;-89
2022/01/03 00:05:11;;;;;;;5.07;2.40;;;-3.50;99.90;;;;;;5035073;28;20403;-89
2022/01/03 00:07:43;;;;;;;4.28;2.25;;;-3.50;99.90;;;;;;5042335;28;20414;-89
2022/01/03 00:10:13;;;;;;;4.03;2.40;;;-3.50;99.90;;;;;;5051364;28;20388;-90
2022/01/03 00:12:41;;;;;;;4.72;2.35;;;-3.50;99.90;;;;;;5051193;28;20399;-89
2022/01/03 00:15:13;;;;;;;3.30;2.00;;;-3.50;99.90;;;;;;5059311;28;20910;-89
2022/01/03 00:17:42;;;;;;;4.45;2.40;;;-3.50;99.90;;;;;;5051378;28;20402;-90
2022/01/03 00:20:11;;;;;;;4.40;2.40;;;-3.60;99.90;;;;;;5054621;28;20882;-90
2022/01/03 00:23:05;;;;;;;3.53;2.20;;;-3.60;99.90;;;;;;5070714;28;20402;-89
2022/01/03 00:25:37;;;;;;;4.47;2.38;;;-3.60;99.90;;;;;;5068543;28;20760;-89
2022/01/03 00:28:21;;;;;;;3.50;2.30;;;-3.60;99.90;;;;;;5068883;28;20394;-89
2022/01/03 00:30:56;;;;;;;4.75;2.70;;;-3.60;99.90;;;;;;5034650;28;20398;-90
2022/01/03 00:33:25;;;;;;;4.57;2.83;;;-3.50;99.90;;;;;;5051254;28;20461;-89
2022/01/03 00:35:59;;;;;;;4.65;2.70;;;-3.50;99.90;;;;;;5050871;28;20410;-89
2022/01/03 00:38:34;;;;;;;4.25;2.35;;;-3.50;99.90;;;;;;5050913;28;20395;-89
2022/01/03 00:41:03;;;;;;;4.22;2.25;;;-3.50;99.90;;;;;;5034227;28;20475;-89
2022/01/03 00:43:32;;;;;;;5.35;2.47;;;-3.50;99.90;;;;;;5034392;28;20402;-89
2022/01/03 00:46:00;;;;;;;4.35;2.72;;;-3.50;99.90;;;;;;5050648;28;20736;-90
2022/01/03 00:48:31;;;;;;;5.10;2.78;;;-3.50;99.90;;;;;;5034390;28;20915;-89
2022/01/03 00:51:02;;;;;;;4.38;2.70;;;-3.50;99.90;;;;;;5058698;28;20402;-88
2022/01/03 00:53:30;;;;;;;5.00;3.08;;;-3.50;99.90;;;;;;5070860;28;20409;-89
2022/01/03 00:56:10;;;;;;;4.68;2.80;;;-3.40;99.90;;;;;;5054247;28;20398;-90
2022/01/03 00:59:12;;;;;;;4.13;2.40;;;-3.30;99.90;;;;;;5054149;28;20813;-90
2022/01/03 01:01:44;;;;;;;3.65;2.30;;;-3.40;99.90;;;;;;5053347;28;20428;-89
2022/01/03 01:04:15;;;;;;;6.10;2.97;;;-3.50;99.90;;;;;;5070618;28;20894;-89
2022/01/03 01:06:52;;;;;;;4.47;2.78;;;-3.40;99.90;;;;;;5070825;28;20511;-90
2022/01/03 01:09:22;;;;;;;4.32;2.70;;;-3.40;99.90;;;;;;5036775;28;20403;-88
2022/01/03 01:11:55;;;;;;;4.88;2.90;;;-3.40;99.90;;;;;;5050391;28;20487;-89
2022/01/03 01:14:28;;;;;;;5.13;2.95;;;-3.40;99.90;;;;;;5034753;28;20457;-89
2022/01/03 01:16:57;;;;;;;4.80;2.72;;;-3.40;99.90;;;;;;5050590;28;20396;-89
2022/01/03 01:19:28;;;;;;;6.00;3.38;;;-3.30;99.90;;;;;;5034087;28;20399;-89
2022/01/03 01:21:57;;;;;;;4.70;2.70;;;-3.20;99.90;;;;;;5038520;28;20408;-88
2022/01/03 01:24:32;;;;;;;4.35;2.40;;;-3.30;99.90;;;;;;5050113;28;20408;-89
2022/01/03 01:29:49;;;;;;;4.57;2.90;;;-3.30;99.90;;;;;;5054196;28;20881;-89
2022/01/03 01:32:19;;;;;;;5.07;2.97;;;-3.30;99.90;;;;;;5037740;28;20932;-90
2022/01/03 01:34:52;;;;;;;6.10;3.00;;;-3.20;99.90;;;;;;5037842;28;20425;-89
2022/01/03 01:37:23;;;;;;;5.13;3.15;;;-3.20;99.90;;;;;;5037846;28;20404;-89
2022/01/03 01:39:52;;;;;;;5.00;2.75;;;-3.20;99.90;;;;;;5037933;28;20976;-89
2022/01/03 01:42:20;;;;;;;5.57;3.22;;;-3.30;99.90;;;;;;5053877;28;20430;-89
2022/01/03 01:44:53;;;;;;;4.97;2.83;;;-3.30;99.90;;;;;;5038142;28;20470;-89
2022/01/03 01:47:26;;;;;;;5.30;3.17;;;-3.30;99.90;;;;;;5037979;28;20404;-90
2022/01/03 01:49:56;;;;;;;4.35;2.85;;;-3.30;99.90;;;;;;5037941;28;20391;-91
2022/01/03 01:52:25;;;;;;;4.73;3.00;;;-3.30;99.90;;;;;;5037438;28;20877;-89
2022/01/03 01:55:12;;;;;;;4.63;2.30;;;-3.30;99.90;;;;;;5037975;28;20499;-89
2022/01/03 01:57:57;;;;;;;5.20;3.10;;;-3.30;99.90;;;;;;5037977;28;20434;-89
2022/01/03 02:00:36;;;;;;;5.10;3.00;;;-3.30;99.90;;;;;;5053630;28;20408;-89
2022/01/03 02:03:37;;;;;;;3.40;2.28;;;-3.30;99.90;;;;;;5038660;28;20411;-89
2022/01/03 02:06:06;;;;;;;4.70;2.75;;;-3.30;99.90;;;;;;5037327;28;20403;-89
2022/01/03 02:08:44;;;;;;;3.80;2.20;;;-3.30;99.90;;;;;;5037016;28;20392;-90
2022/01/03 02:11:27;;;;;;;4.15;2.40;;;-3.30;99.90;;;;;;5053502;28;20395;-90
2022/01/03 02:13:56;;;;;;;4.10;2.17;;;-3.40;99.90;;;;;;5053485;28;20411;-90
2022/01/03 02:16:24;;;;;;;4.82;2.70;;;-3.40;99.90;;;;;;5036746;28;20458;-90
2022/01/03 02:18:54;;;;;;;3.97;2.35;;;-3.40;99.90;;;;;;5053350;28;20399;-89
2022/01/03 02:21:22;;;;;;;3.70;2.28;;;-3.30;99.90;;;;;;5053036;28;20426;-90
2022/01/03 02:23:52;;;;;;;3.63;2.20;;;-3.30;99.90;;;;;;5036797;28;20924;-89
2022/01/03 02:26:20;;;;;;;4.20;2.28;;;-3.30;99.90;;;;;;5036761;28;20412;-90
2022/01/03 02:28:48;;;;;;;4.30;2.30;;;-3.40;99.90;;;;;;5037034;28;20774;-90
2022/01/03 02:31:18;;;;;;;4.40;2.60;;;-3.30;99.90;;;;;;5053327;28;20399;-90
2022/01/03 02:33:49;;;;;;;3.58;1.95;;;-3.30;99.90;;;;;;5053158;28;20422;-90
2022/01/03 02:36:18;;;;;;;4.72;2.33;;;-3.40;99.90;;;;;;5052965;28;20843;-89
2022/01/03 02:38:46;;;;;;;4.50;2.70;;;-3.20;99.90;;;;;;5052335;28;20889;-89
2022/01/03 02:41:14;;;;;;;4.50;2.22;;;-3.20;99.90;;;;;;5036592;28;20402;-90
2022/01/03 02:43:43;;;;;;;4.63;2.10;;;-3.30;99.90;;;;;;5053025;28;20388;-90
2022/01/03 02:46:11;;;;;;;3.60;2.00;;;-3.30;99.90;;;;;;5053175;28;20514;-89
2022/01/03 02:48:38;;;;;;;4.88;2.40;;;-3.40;99.90;;;;;;5069496;28;20433;-90
2022/01/03 02:51:06;;;;;;;3.35;1.77;;;-3.30;99.90;;;;;;5036554;28;20395;-89
2022/01/03 02:53:34;;;;;;;4.00;2.22;;;-3.30;99.90;;;;;;5052963;28;20403;-89
2022/01/03 02:56:02;;;;;;;4.40;2.50;;;-3.30;99.90;;;;;;5052717;28;20469;-90
2022/01/03 02:58:31;;;;;;;3.70;2.20;;;-3.30;99.90;;;;;;5069375;28;20388;-91
2022/01/03 03:00:59;;;;;;;3.55;1.98;;;-3.20;99.90;;;;;;5052775;28;20407;-90
2022/01/03 03:03:50;;;;;;;4.28;2.35;;;-3.20;99.90;;;;;;5052743;28;20449;-91
2022/01/03 03:06:18;;;;;;;5.45;2.60;;;-3.20;99.90;;;;;;5052821;28;20396;-90
2022/01/03 03:08:46;;;;;;;4.28;2.33;;;-3.30;99.90;;;;;;5052808;28;20913;-91
2022/01/03 03:11:14;;;;;;;3.95;2.47;;;-3.20;99.90;;;;;;5052592;28;20416;-89
2022/01/03 03:13:42;;;;;;;4.60;2.50;;;-3.20;99.90;;;;;;5052477;28;20392;-90
2022/01/03 03:16:10;;;;;;;4.55;2.40;;;-3.20;99.90;;;;;;5052334;28;20460;-90
2022/01/03 03:18:37;;;;;;;5.43;2.50;;;-3.20;99.90;;;;;;5052326;28;20395;-90
2022/01/03 03:21:06;;;;;;;4.13;2.10;;;-3.20;99.90;;;;;;5052254;28;20411;-90
2022/01/03 03:23:34;;;;;;;4.03;2.40;;;-3.20;99.90;;;;;;5051946;28;20435;-89
2022/01/03 03:26:01;;;;;;;5.60;3.08;;;-3.30;99.90;;;;;;5052061;28;20941;-90
2022/01/03 03:28:30;;;;;;;4.80;2.50;;;-3.20;99.90;;;;;;5052189;28;20400;-90
2022/01/03 03:31:01;;;;;;;3.55;2.28;;;-3.10;99.90;;;;;;5052015;28;20487;-90
2022/01/03 03:33:38;;;;;;;6.90;3.03;;;-3.10;99.90;;;;;;5052150;28;20465;-91
2022/01/03 03:36:07;;;;;;;4.03;2.53;;;-3.10;99.90;;;;;;5035372;28;20424;-90
2022/01/03 03:38:35;;;;;;;3.72;2.35;;;-3.10;99.90;;;;;;5051633;28;20834;-89
2022/01/03 03:41:08;;;;;;;4.20;2.55;;;-3.10;99.90;;;;;;5051807;28;20487;-90
2022/01/03 03:43:41;;;;;;;3.42;2.13;;;-3.00;99.90;;;;;;5051854;28;20487;-90
2022/01/03 03:46:10;;;;;;;4.65;2.70;;;-3.00;99.90;;;;;;5035456;28;20407;-90
2022/01/03 03:48:39;;;;;;;4.53;2.63;;;-2.90;99.90;;;;;;5051802;28;20396;-89
2022/01/03 03:51:10;;;;;;;3.28;2.00;;;-2.90;99.90;;;;;;5035824;28;20409;-90
2022/01/03 03:53:38;;;;;;;3.28;2.20;;;-2.90;99.90;;;;;;5051534;28;20886;-90
2022/01/03 03:56:06;;;;;;;3.58;1.98;;;-2.90;99.90;;;;;;5051579;28;20400;-90
2022/01/03 03:58:35;;;;;;;4.75;2.70;;;-3.00;99.90;;;;;;5051552;28;20443;-90
2022/01/03 04:01:03;;;;;;;4.32;2.30;;;-2.90;99.90;;;;;;5056459;28;20445;-90
2022/01/03 04:03:41;;;;;;;3.27;1.80;;;-2.90;99.90;;;;;;5051488;28;20411;-89
2022/01/03 04:06:10;;;;;;;3.35;2.20;;;-3.00;99.90;;;;;;5051654;28;20840;-90
2022/01/03 04:08:38;;;;;;;2.97;1.90;;;-3.00;99.90;;;;;;5051291;28;20423;-90
2022/01/03 04:11:06;;;;;;;2.53;1.77;;;-3.00;99.90;;;;;;5051289;28;20403;-89
2022/01/03 04:13:35;;;;;;;4.22;1.98;;;-3.00;99.90;;;;;;5051588;28;20403;-90
2022/01/03 04:16:06;;;;;;;2.70;1.73;;;-3.00;99.90;;;;;;5051492;28;20471;-89
2022/01/03 04:18:35;;;;;;;3.10;1.83;;;-3.00;99.90;;;;;;5051031;28;20400;-89
2022/01/03 04:21:03;;;;;;;3.17;1.80;;;-3.00;99.90;;;;;;5052688;28;20384;-89
2022/01/03 04:23:30;;;;;;;4.13;2.33;;;-2.90;99.90;;;;;;5050711;28;20473;-90
2022/01/03 04:25:58;;;;;;;4.68;2.35;;;-2.90;99.90;;;;;;5034635;28;20403;-90
2022/01/03 04:28:26;;;;;;;3.58;2.10;;;-2.90;99.90;;;;;;5050940;28;20388;-90
2022/01/03 04:30:53;;;;;;;4.80;2.73;;;-3.00;99.90;;;;;;5051351;28;20398;-90
2022/01/03 04:33:21;;;;;;;4.10;2.55;;;-3.00;99.90;;;;;;5051066;28;20419;-89
2022/01/03 04:35:51;;;;;;;5.15;3.05;;;-3.00;99.90;;;;;;5050782;28;20458;-90
2022/01/03 04:38:19;;;;;;;4.67;3.00;;;-3.00;99.90;;;;;;5051298;28;20408;-89
2022/01/03 04:40:47;;;;;;;5.20;2.70;;;-3.10;99.90;;;;;;5051059;28;20395;-90
2022/01/03 04:43:15;;;;;;;5.20;2.90;;;-3.00;99.90;;;;;;5050853;28;20399;-90
2022/01/03 04:45:42;;;;;;;4.65;2.70;;;-2.90;99.90;;;;;;5050887;28;20396;-90
2022/01/03 04:48:10;;;;;;;3.97;2.45;;;-2.90;99.90;;;;;;5050878;28;20439;-89
2022/01/03 04:50:38;;;;;;;4.97;2.22;;;-2.90;99.90;;;;;;5050884;28;20400;-89
2022/01/03 04:53:06;;;;;;;4.80;2.67;;;-3.00;99.90;;;;;;5034491;28;20817;-90
2022/01/03 04:55:34;;;;;;;4.55;2.50;;;-3.00;99.90;;;;;;5050915;28;20870;-91
2022/01/03 04:58:02;;;;;;;6.30;3.17;;;-2.90;99.90;;;;;;5050886;28;20426;-90
2022/01/03 05:00:30;;;;;;;5.38;2.90;;;-2.90;99.90;;;;;;5050744;28;20450;-90
2022/01/03 05:03:00;;;;;;;5.32;3.13;;;-2.90;99.90;;;;;;5054286;28;20933;-90
2022/01/03 05:05:27;;;;;;;4.95;2.60;;;-2.90;99.90;;;;;;5054608;28;20399;-91
2022/01/03 05:07:55;;;;;;;4.43;2.90;;;-2.90;99.90;;;;;;5054894;28;20484;-89
2022/01/03 05:10:23;;;;;;;4.38;2.67;;;-2.80;99.90;;;;;;5054669;28;20482;-90
2022/01/03 05:12:51;;;;;;;5.23;3.00;;;-2.90;99.90;;;;;;5054719;28;20403;-89
2022/01/03 05:15:19;;;;;;;6.07;3.60;;;-2.90;99.90;;;;;;5054628;28;20407;-89
2022/01/03 05:17:47;;;;;;;5.40;3.08;;;-2.80;99.90;;;;;;5071175;28;20387;-90
2022/01/03 05:20:15;;;;;;;5.50;3.10;;;-2.90;99.90;;;;;;5070922;28;20798;-86
2022/01/03 05:22:43;;;;;;;5.22;3.13;;;-2.80;99.90;;;;;;5054081;28;20432;-90
2022/01/03 05:25:12;;;;;;;5.97;3.45;;;-2.70;99.90;;;;;;5054542;28;20423;-89
2022/01/03 05:27:42;;;;;;;6.18;3.60;;;-2.80;99.90;;;;;;5071239;28;20451;-90
2022/01/03 05:30:11;;;;;;;6.22;3.13;;;-2.80;99.90;;;;;;5054258;28;20434;-90
2022/01/03 05:32:39;;;;;;;5.07;2.70;;;-2.80;99.90;;;;;;5054445;28;20504;-90
2022/01/03 05:35:07;;;;;;;4.60;2.60;;;-2.90;99.90;;;;;;5037975;28;20392;-90
2022/01/03 05:37:35;;;;;;;4.97;2.70;;;-2.90;99.90;;;;;;5054111;28;20404;-90
2022/01/03 05:40:06;;;;;;;5.50;2.95;;;-3.00;99.90;;;;;;5054610;28;20403;-89
2022/01/03 05:42:34;;;;;;;5.10;2.90;;;-3.00;99.90;;;;;;5054452;28;20396;-90
2022/01/03 05:45:04;;;;;;;5.30;2.80;;;-2.90;99.90;;;;;;5054263;28;20560;-90
2022/01/03 05:47:32;;;;;;;5.85;3.28;;;-2.90;99.90;;;;;;5073994;28;20394;-90
2022/01/03 05:50:01;;;;;;;5.47;3.15;;;-3.00;99.90;;;;;;5057554;28;20768;-90
2022/01/03 05:52:33;;;;;;;6.57;3.30;;;-2.90;99.90;;;;;;5057811;28;20398;-89
2022/01/03 05:55:01;;;;;;;6.13;3.30;;;-2.90;99.90;;;;;;5057511;28;20397;-89
2022/01/03 05:57:30;;;;;;;5.63;3.33;;;-2.80;99.90;;;;;;5057475;28;20445;-90
2022/01/03 06:00:02;;;;;;;5.30;2.83;;;-2.80;99.90;;;;;;5057663;28;20923;-90
2022/01/03 06:02:42;;;;;;;4.82;2.85;;;-2.80;99.90;;;;;;5073872;28;20398;-90
2022/01/03 06:05:20;;;;;;;5.20;3.00;;;-2.70;99.90;;;;;;5057309;28;20395;-89
2022/01/03 06:07:48;;;;;;;5.30;3.30;;;-2.70;99.90;;;;;;5057105;28;20401;-90
2022/01/03 06:10:23;;;;;;;5.95;3.28;;;-2.80;99.90;;;;;;5056933;28;20398;-90
2022/01/03 06:12:52;;;;;;;5.85;3.22;;;-2.80;99.90;;;;;;5036239;28;20427;-90
2022/01/03 06:15:25;;;;;;;5.40;3.05;;;-2.70;99.90;;;;;;5053533;28;20863;-90
2022/01/03 06:17:53;;;;;;;6.63;3.47;;;-2.70;99.90;;;;;;5037132;28;20395;-88
2022/01/03 06:20:23;;;;;;;5.65;2.80;;;-2.70;99.90;;;;;;5041733;28;20480;-88
2022/01/03 06:22:51;;;;;;;8.23;3.73;;;-2.80;99.90;;;;;;5053161;28;20665;-90
2022/01/03 06:25:19;;;;;;;6.90;3.50;;;-2.70;99.90;;;;;;5053420;28;20475;-90
2022/01/03 06:27:47;;;;;;;7.95;4.20;;;-2.70;99.90;;;;;;5066985;28;20409;-90
2022/01/03 06:30:15;;;;;;;6.40;3.85;;;-2.70;99.90;;;;;;5057000;28;20869;-90
2022/01/03 06:32:48;;;;;;;7.22;4.15;;;-2.70;99.90;;;;;;5073183;28;20398;-90
2022/01/03 06:35:16;;;;;;;6.97;3.97;;;-2.70;99.90;;;;;;5047101;28;20766;-90
2022/01/03 06:37:44;;;;;;;7.70;4.53;;;-2.70;99.90;;;;;;5048246;28;20433;-90
2022/01/03 06:40:17;;;;;;;8.48;4.47;;;-2.60;99.90;;;;;;5053884;28;20396;-90
2022/01/03 06:42:46;;;;;;;8.25;3.78;;;-2.70;99.90;;;;;;5058567;28;20425;-90
2022/01/03 06:45:16;;;;;;;8.73;4.55;;;-2.70;99.90;;;;;;5072489;28;20398;-90
2022/01/03 06:47:45;;;;;;;8.82;4.30;;;-2.80;99.90;;;;;;5047588;28;20392;-90
2022/01/03 06:50:13;;;;;;;8.57;4.30;;;-2.70;99.90;;;;;;5066777;28;20907;-89
2022/01/03 06:52:40;;;;;;;7.10;3.58;;;-2.70;99.90;;;;;;5072502;28;20460;-89
2022/01/03 06:55:08;;;;;;;7.78;4.30;;;-2.70;99.90;;;;;;5056048;28;20406;-89
2022/01/03 06:57:39;;;;;;;10.63;4.85;;;-2.70;99.90;;;;;;5056356;28;20412;-90
2022/01/03 07:00:07;;;;;;;6.97;3.77;;;-2.60;99.90;;;;;;5056058;28;20398;-89
2022/01/03 07:02:36;;;;;;;8.32;3.80;;;-2.60;99.90;;;;;;5056095;28;20397;-90
2022/01/03 07:05:04;;;;;;;9.25;4.72;;;-2.80;99.90;;;;;;5073515;28;20382;-90
2022/01/03 07:07:32;;;;;;;9.10;4.70;;;-2.70;99.90;;;;;;5055865;28;20423;-89
2022/01/03 07:09:59;;;;;;;8.20;4.45;;;-2.60;99.90;;;;;;5072364;28;20413;-89
2022/01/03 07:12:28;;;;;;;8.55;4.63;;;-2.60;99.90;;;;;;5055767;28;20421;-89
2022/01/03 07:20:11;;;;;;;7.93;3.78;;;-2.70;99.90;;;;;;5072242;28;20428;-89
2022/01/03 07:22:40;;;;;;;8.18;4.07;;;-2.70;99.90;;;;;;5068762;28;20402;-90
2022/01/03 07:25:09;;;;;;;10.18;4.68;;;-2.90;99.90;;;;;;5072795;28;20868;-88
2022/01/03 07:27:37;;;;;;;10.07;5.55;;;-2.90;99.90;;;;;;5055594;28;20431;-89
2022/01/03 07:30:06;;;;;;;10.07;5.38;;;-2.80;99.90;;;;;;5052145;28;20392;-90
2022/01/03 07:32:33;;;;;;;10.88;5.65;;;-2.70;99.90;;;;;;5050239;28;20906;-89
2022/01/03 07:35:01;;;;;;;9.85;5.03;;;-2.70;99.90;;;;;;5066501;28;20433;-89
2022/01/03 07:37:29;;;;;;;8.63;4.60;;;-2.60;99.90;;;;;;5070902;28;20382;-89
2022/01/03 07:39:56;;;;;;;9.30;4.90;;;-2.70;99.90;;;;;;5035387;28;20452;-90
2022/01/03 07:42:24;;;;;;;10.20;5.20;;;-2.70;99.90;;;;;;5040060;28;20422;-90
2022/01/03 07:44:55;;;;;;;11.73;5.95;;;-2.70;99.90;;;;;;5055763;28;20560;-90
2022/01/03 07:47:23;;;;;;;13.13;5.70;;;-2.60;99.90;;;;;;5055181;28;20438;-89
2022/01/03 07:49:51;;;;;;;13.90;6.30;;;-2.60;99.90;;;;;;5071750;28;20389;-90
2022/01/03 07:52:19;;;;;;;10.20;5.32;;;-2.50;99.90;;;;;;5055256;28;20398;-89
2022/01/03 07:54:46;;;;;;;13.17;6.17;;;-2.60;99.90;;;;;;5055065;28;20398;-89
2022/01/03 07:57:14;;;;;;;9.52;5.13;;;-2.70;99.90;;;;;;5055063;28;20473;-90
2022/01/03 07:59:41;;;;;;;11.07;5.60;;;-2.70;99.90;;;;;;5054867;28;20386;-89
2022/01/03 08:02:09;;;;;;;13.38;6.10;;;-2.60;99.90;;;;;;5055168;28;20404;-89
2022/01/03 08:04:37;;;;;;;13.82;6.82;;;-2.60;99.90;;;;;;5071332;28;20425;-90
2022/01/03 08:07:06;;;;;;;15.20;6.83;;;-2.60;99.90;;;;;;5055107;28;20881;-90
2022/01/03 08:09:33;;;;;;;11.38;6.03;;;-2.60;99.90;;;;;;5054893;28;20388;-89
2022/01/03 08:12:01;;;;;;;11.15;5.88;;;-2.60;99.90;;;;;;5070980;28;20428;-90
2022/01/03 08:14:29;;;;;;;15.00;7.00;;;-2.80;99.90;;;;;;5054813;28;20403;-90
2022/01/03 08:16:57;;;;;;;13.57;7.25;;;-2.70;99.90;;;;;;5067954;28;20472;-90
2022/01/03 08:19:25;;;;;;;14.52;7.20;;;-2.60;99.90;;;;;;5054592;28;20386;-89
2022/01/03 08:21:53;;;;;;;15.43;7.35;;;-2.60;99.90;;;;;;5058593;28;20605;-91
2022/01/03 08:24:20;;;;;;;14.07;7.37;;;-2.50;99.90;;;;;;5059385;28;20402;-90
2022/01/03 08:26:49;;;;;;;13.82;6.97;;;-2.50;99.90;;;;;;5053138;28;20398;-90
2022/01/03 08:29:17;;;;;;;13.17;6.83;;;-2.50;99.90;;;;;;5039061;28;20482;-90
2022/01/03 08:31:44;;;;;;;12.15;6.05;;;-2.70;99.90;;;;;;5054144;28;20491;-90
2022/01/03 08:34:12;;;;;;;11.27;6.18;;;-2.60;99.90;;;;;;5041965;28;20404;-92
2022/01/03 08:36:40;;;;;;;10.70;5.82;;;-2.70;99.90;;;;;;5064089;28;20493;-90
2022/01/03 08:39:09;;;;;;;10.32;5.55;;;-2.80;99.90;;;;;;5040289;28;20487;-89
2022/01/03 08:41:37;;;;;;;14.05;6.60;;;-2.80;99.90;;;;;;5038480;28;20406;-90
2022/01/03 08:44:08;;;;;;;12.80;6.53;;;-2.80;99.90;;;;;;5049172;28;20419;-90
2022/01/03 08:46:37;;;;;;;12.52;6.45;;;-2.80;99.90;;;;;;5051963;28;20418;-89
2022/01/03 08:49:06;;;;;;;12.30;6.45;;;-2.80;99.90;;;;;;5053458;28;20444;-89
2022/01/03 08:51:33;;;;;;;16.98;8.13;;;-2.80;99.90;;;;;;5053224;28;20399;-89
2022/01/03 08:54:01;;;;;;;12.23;6.20;;;-2.70;99.90;;;;;;5058620;28;20407;-88
2022/01/03 08:56:29;;;;;;;15.43;7.40;;;-2.80;99.90;;;;;;5051271;28;20397;-89
2022/01/03 08:58:57;;;;;;;14.38;6.63;;;-2.80;99.90;;;;;;5042760;28;20933;-89
2022/01/03 09:01:25;;;;;;;10.57;5.97;;;-2.80;99.90;;;;;;5061639;28;20482;-89
2022/01/03 09:03:53;;;;;;;10.23;5.45;;;-2.80;99.90;;;;;;5034329;28;20408;-89
2022/01/03 09:06:21;;;;;;;13.50;7.05;;;-2.80;99.90;;;;;;5043435;28;20463;-88
2022/01/03 09:08:49;;;;;;;29.00;17.63;;;-2.80;99.90;;;;;;5053998;28;20382;-89
2022/01/03 09:11:17;;;;;;;18.53;9.90;;;-2.70;99.90;;;;;;5061761;28;20403;-89
2022/01/03 09:13:45;;;;;;;21.63;11.23;;;-2.70;99.90;;;;;;5065223;28;20880;-89
2022/01/03 09:16:13;;;;;;;20.50;10.85;;;-2.70;99.90;;;;;;5041960;28;20502;-89
2022/01/03 09:18:42;;;;;;;20.08;10.90;;;-2.60;99.90;;;;;;5049240;28;20398;-89
2022/01/03 09:21:10;;;;;;;24.10;13.20;;;-2.60;99.90;;;;;;5054282;28;20396;-89
2022/01/03 09:23:42;;;;;;;23.60;12.40;;;-2.60;99.90;;;;;;5070393;28;20398;-89
2022/01/03 09:28:57;;;;;;;22.88;11.93;;;-2.50;99.90;;;;;;5070608;28;20400;-90
2022/01/03 09:31:34;;;;;;;17.70;8.60;;;-2.50;99.90;;;;;;5065431;28;20402;-89
2022/01/03 09:34:05;;;;;;;19.30;9.88;;;-2.50;99.90;;;;;;5059204;28;20856;-89
2022/01/03 09:36:34;;;;;;;22.02;10.30;;;-2.60;99.90;;;;;;5052436;28;20411;-90
2022/01/03 09:39:04;;;;;;;20.70;10.48;;;-2.60;99.90;;;;;;5034186;28;20384;-89
2022/01/03 09:41:33;;;;;;;21.48;11.25;;;-2.50;99.90;;;;;;5060751;28;20402;-90
2022/01/03 09:44:04;;;;;;;29.05;14.10;;;-2.40;99.90;;;;;;5052202;28;20492;-89
2022/01/03 09:46:34;;;;;;;25.92;12.68;;;-2.40;99.90;;;;;;5050500;28;20424;-89
2022/01/03 09:49:04;;;;;;;26.60;12.85;;;-2.40;99.90;;;;;;5059507;28;20394;-89
2022/01/03 09:51:32;;;;;;;26.57;11.60;;;-2.40;99.90;;;;;;5073943;28;20382;-89
2022/01/03 09:54:04;;;;;;;26.15;12.95;;;-2.50;99.90;;;;;;5063772;28;20411;-90
2022/01/03 09:56:37;;;;;;;28.40;13.95;;;-2.50;99.90;;;;;;5042302;28;20510;-89
2022/01/03 09:59:06;;;;;;;31.30;14.90;;;-2.50;99.90;;;;;;5053716;28;20932;-90
2022/01/03 10:01:41;;;;;;;32.25;15.02;;;-2.50;99.90;;;;;;5062042;28;20400;-89
2022/01/03 10:04:12;;;;;;;33.00;16.02;;;-2.50;99.90;;;;;;5053537;28;20400;-89
2022/01/03 10:06:40;;;;;;;33.05;16.23;;;-2.40;99.90;;;;;;5053582;28;20408;-89
2022/01/03 10:09:08;;;;;;;39.25;17.08;;;-2.40;99.90;;;;;;5073445;28;20378;-89
2022/01/03 10:11:36;;;;;;;33.20;16.55;;;-2.40;99.90;;;;;;5073494;28;20386;-89
2022/01/03 10:14:11;;;;;;;38.85;17.88;;;-2.50;99.90;;;;;;5041518;28;20388;-89
2022/01/03 10:16:44;;;;;;;27.48;12.90;;;-2.50;99.90;;;;;;5053380;28;20392;-88
2022/01/03 10:19:23;;;;;;;25.25;12.80;;;-2.40;99.90;;;;;;5053525;28;20420;-89
2022/01/03 10:21:51;;;;;;;24.75;13.75;;;-2.40;99.90;;;;;;5037066;28;20491;-90
2022/01/03 10:24:30;;;;;;;25.15;13.00;;;-2.40;99.90;;;;;;5055341;28;20498;-89
2022/01/03 10:26:58;;;;;;;24.27;12.00;;;-2.40;99.90;;;;;;5056822;28;20390;-89
2022/01/03 10:29:28;;;;;;;25.20;12.55;;;-2.40;99.90;;;;;;5056686;28;20736;-90
2022/01/03 10:32:00;;;;;;;24.83;12.77;;;-2.30;99.90;;;;;;5057240;28;20441;-90
2022/01/03 10:34:32;;;;;;;25.80;13.20;;;-2.30;99.90;;;;;;5044981;28;20894;-89
2022/01/03 10:37:10;;;;;;;28.73;14.52;;;-2.30;99.90;;;;;;5053249;28;20395;-89
2022/01/03 10:39:38;;;;;;;26.57;13.27;;;-2.20;99.90;;;;;;5059265;28;20466;-90
2022/01/03 10:42:21;;;;;;;23.13;11.45;;;-2.20;99.90;;;;;;5038558;28;20410;-90
2022/01/03 10:44:49;;;;;;;24.10;12.23;;;-2.20;99.90;;;;;;5073212;28;20424;-90
2022/01/03 10:47:31;;;;;;;23.48;11.55;;;-2.20;99.90;;;;;;5073078;28;20431;-90
2022/01/03 10:50:11;;;;;;;23.63;12.47;;;-2.20;99.90;;;;;;5056434;28;20397;-90
2022/01/03 10:52:43;;;;;;;36.53;17.40;;;-2.10;99.90;;;;;;5073097;28;20378;-89
2022/01/03 10:55:19;;;;;;;35.63;18.52;;;-2.10;99.90;;;;;;5072797;28;20425;-90
2022/01/03 10:57:52;;;;;;;37.63;19.27;;;-2.10;99.90;;;;;;5056525;28;20422;-90
2022/01/03 11:00:34;;;;;;;44.60;22.97;;;-2.10;99.90;;;;;;5071787;28;20394;-91
2022/01/03 11:05:52;;;;;;;42.55;21.85;;;-2.10;99.90;;;;;;5072660;28;20402;-90
2022/01/03 11:11:10;;;;;;;42.55;21.35;;;-2.10;99.90;;;;;;5052407;28;20411;-90
2022/01/03 11:13:40;;;;;;;41.15;21.60;;;-2.20;99.90;;;;;;5052571;28;20925;-92
2022/01/03 11:16:10;;;;;;;43.03;20.83;;;-2.10;99.90;;;;;;5036295;28;20550;-90
2022/01/03 11:18:44;;;;;;;40.83;20.58;;;-2.10;99.90;;;;;;5040586;28;20461;-92
2022/01/03 11:21:18;;;;;;;40.00;20.23;;;-2.10;99.90;;;;;;5056134;28;20411;-91
2022/01/03 11:24:02;;;;;;;34.63;16.70;;;-2.10;99.90;;;;;;5062082;28;20426;-91
2022/01/03 11:26:30;;;;;;;36.08;18.92;;;-2.10;99.90;;;;;;5046975;28;20408;-90
2022/01/03 11:28:58;;;;;;;36.17;19.03;;;-2.20;99.90;;;;;;5061414;28;20405;-91
2022/01/03 11:31:32;;;;;;;36.95;19.40;;;-2.20;99.90;;;;;;5067754;28;20402;-91
2022/01/03 11:34:01;;;;;;;38.47;19.00;;;-2.20;99.90;;;;;;5061328;28;20418;-91
2022/01/03 11:36:49;;;;;;;31.80;16.58;;;-2.10;99.90;;;;;;5071651;28;20402;-91
2022/01/03 11:39:21;;;;;;;29.35;15.15;;;-2.10;99.90;;;;;;5054198;28;20398;-90
2022/01/03 11:41:50;;;;;;;29.20;15.35;;;-2.10;99.90;;;;;;5070940;28;20402;-91
2022/01/03 11:44:18;;;;;;;25.42;13.68;;;-2.10;99.90;;;;;;5047255;28;20988;-91
2022/01/03 11:46:47;;;;;;;30.30;15.05;;;-2.10;99.90;;;;;;5043859;28;20972;-91
2022/01/03 11:49:17;;;;;;;22.63;11.75;;;-2.10;99.90;;;;;;5044861;28;20411;-92
2022/01/03 11:51:46;;;;;;;24.80;12.82;;;-2.10;99.90;;;;;;5071782;28;20399;-91
2022/01/03 11:54:16;;;;;;;23.77;11.93;;;-2.10;99.90;;;;;;5055253;28;20907;-90
2022/01/03 11:56:50;;;;;;;22.35;10.90;;;-2.10;99.90;;;;;;5055142;28;20406;-91
2022/01/03 11:59:24;;;;;;;21.13;11.25;;;-2.00;99.90;;;;;;5071650;28;20497;-91
2022/01/03 12:05:01;;;;;;;22.40;11.90;;;-2.10;99.90;;;;;;5071618;28;20422;-91
2022/01/03 12:07:29;;;;;;;22.45;11.48;;;-2.00;99.90;;;;;;5050951;28;20901;-91
2022/01/03 12:10:10;;;;;;;21.17;11.18;;;-2.10;99.90;;;;;;5035102;28;20400;-90
2022/01/03 12:12:39;;;;;;;17.65;9.50;;;-2.10;99.90;;;;;;5035090;28;20399;-91
2022/01/03 12:15:28;;;;;;;17.88;9.73;;;-2.10;99.90;;;;;;5035148;28;20399;-91
2022/01/03 12:17:58;;;;;;;20.73;11.05;;;-2.00;99.90;;;;;;5034980;28;20408;-91
2022/01/03 12:20:41;;;;;;;21.75;11.30;;;-2.00;99.90;;;;;;5067533;28;20432;-91
2022/01/03 12:23:09;;;;;;;18.67;10.60;;;-2.00;99.90;;;;;;5071376;28;20410;-91
2022/01/03 12:25:38;;;;;;;16.90;9.90;;;-2.00;99.90;;;;;;5043423;28;20498;-91
2022/01/03 12:28:10;;;;;;;20.07;10.90;;;-2.00;99.90;;;;;;5069891;28;20485;-91
2022/01/03 12:30:55;;;;;;;21.67;11.65;;;-2.00;99.90;;;;;;5067516;28;20499;-92
2022/01/03 12:33:24;;;;;;;20.93;11.27;;;-1.90;99.90;;;;;;5043299;28;20765;-90
2022/01/03 12:36:16;;;;;;;17.42;9.77;;;-2.00;99.90;;;;;;5034549;28;20490;-91
2022/01/03 12:39:04;;;;;;;18.08;10.18;;;-2.00;99.90;;;;;;5050922;28;20415;-90
2022/01/03 12:41:52;;;;;;;17.25;9.77;;;-1.90;99.90;;;;;;5042645;28;20400;-91
2022/01/03 12:44:45;;;;;;;21.15;11.48;;;-1.90;99.90;;;;;;5065221;28;20680;-91
2022/01/03 12:47:21;;;;;;;19.83;10.70;;;-1.90;99.90;;;;;;5071134;28;20388;-91
2022/01/03 12:50:18;;;;;;;18.83;11.23;;;-1.90;99.90;;;;;;5054624;28;20393;-90
2022/01/03 12:52:46;;;;;;;17.50;10.33;;;-1.90;99.90;;;;;;5071123;28;20410;-92
2022/01/03 12:55:40;;;;;;;17.05;10.35;;;-1.90;99.90;;;;;;5060358;28;20403;-91
2022/01/03 12:58:14;;;;;;;15.70;9.20;;;-1.90;99.90;;;;;;5056226;28;20382;-91
2022/01/03 13:00:54;;;;;;;16.25;9.60;;;-1.90;99.90;;;;;;5052473;28;20499;-91
2022/01/03 13:03:25;;;;;;;15.43;10.23;;;-1.90;99.90;;;;;;5064010;28;20394;-91
2022/01/03 13:06:16;;;;;;;12.13;8.00;;;-1.80;99.90;;;;;;5070336;28;20414;-91
2022/01/03 13:09:13;;;;;;;15.07;8.55;;;-1.80;99.90;;;;;;5054290;28;20402;-90
2022/01/03 13:11:48;;;;;;;11.80;7.23;;;-1.80;99.90;;;;;;5050717;28;20407;-90
2022/01/03 13:14:20;;;;;;;13.52;7.38;;;-1.80;99.90;;;;;;5050748;28;20403;-92
2022/01/03 13:16:58;;;;;;;13.68;8.25;;;-1.80;99.90;;;;;;5067486;28;20906;-90
2022/01/03 13:19:30;;;;;;;11.45;7.65;;;-1.70;99.90;;;;;;5067440;28;20957;-91